Time;durP1;ratioP1;P1;durP2;ratioP2;P2;SDS_P1;SDS_P2;PMS_P1;PMS_P2;Temp;Humidity;BMP_temperature;BMP_pressure;BME280_temperature;BME280_humidity;BME280_pressure;Samples;Min_cycle;Max_cycle;Signal;HPM_P1;HPM_P2
2023/06/04 00:02:02;;;;;;;8.02;3.08;;;29.00;99.80;;;;;;4976076;28;20154;-57
2023/06/04 00:04:30;;;;;;;5.38;2.28;;;29.00;99.80;;;;;;4967016;29;20049;-58
2023/06/04 00:06:56;;;;;;;2.75;1.60;;;29.10;99.90;;;;;;4966451;29;20027;-58
2023/06/04 00:09:23;;;;;;;6.75;1.50;;;29.00;99.90;;;;;;4967049;29;20303;-54
2023/06/04 00:11:50;;;;;;;4.97;1.77;;;29.00;99.90;;;;;;4973774;28;20038;-56
2023/06/04 00:14:16;;;;;;;5.25;1.48;;;29.00;99.90;;;;;;4968817;28;20039;-59
2023/06/04 00:16:44;;;;;;;3.15;1.50;;;28.90;99.60;;;;;;4966374;29;20247;-59
2023/06/04 00:19:12;;;;;;;4.60;1.50;;;28.90;99.60;;;;;;4966949;29;20028;-58
2023/06/04 00:21:39;;;;;;;5.70;1.50;;;28.90;99.60;;;;;;4966440;29;20274;-55
2023/06/04 00:24:06;;;;;;;3.55;1.27;;;28.80;99.60;;;;;;4966456;29;20027;-60
2023/06/04 00:26:33;;;;;;;4.10;1.13;;;28.90;99.80;;;;;;4978991;28;20035;-59
2023/06/04 00:29:00;;;;;;;6.43;1.33;;;28.90;99.80;;;;;;4979260;28;20192;-58
2023/06/04 00:31:27;;;;;;;2.63;0.77;;;28.80;99.80;;;;;;4966168;29;20015;-56
2023/06/04 00:33:53;;;;;;;5.82;1.30;;;28.90;99.90;;;;;;4966579;29;20035;-55
2023/06/04 00:36:20;;;;;;;5.75;1.00;;;28.90;99.80;;;;;;4966238;29;20201;-58
2023/06/04 00:38:47;;;;;;;1.92;0.98;;;28.90;99.80;;;;;;4966053;29;20023;-57
2023/06/04 00:41:13;;;;;;;2.20;0.90;;;28.90;99.70;;;;;;4966145;29;20164;-61
2023/06/04 00:43:40;;;;;;;1.40;0.80;;;28.90;99.70;;;;;;4965868;28;20031;-57
2023/06/04 00:46:07;;;;;;;6.03;1.23;;;28.90;99.80;;;;;;4982162;28;20019;-60
2023/06/04 00:48:33;;;;;;;10.02;9.02;;;28.90;99.70;;;;;;4979727;28;20035;-58
2023/06/04 00:51:00;;;;;;;3.30;1.75;;;28.90;99.80;;;;;;4965938;29;20038;-61
2023/06/04 00:53:27;;;;;;;3.03;1.10;;;28.90;99.80;;;;;;4965601;29;20327;-60
2023/06/04 00:55:56;;;;;;;6.47;1.50;;;28.90;99.60;;;;;;4965606;29;20047;-60
2023/06/04 00:58:24;;;;;;;3.72;1.10;;;28.80;99.70;;;;;;4965827;29;20047;-57
2023/06/04 01:00:56;;;;;;;2.78;0.93;;;28.90;99.80;;;;;;4965579;29;20332;-60
2023/06/04 01:03:25;;;;;;;3.90;1.00;;;28.90;99.70;;;;;;4965914;29;20039;-60
2023/06/04 01:05:55;;;;;;;2.85;0.98;;;28.80;99.80;;;;;;4968324;28;20304;-59
2023/06/04 01:08:23;;;;;;;3.72;0.90;;;28.90;99.80;;;;;;4974773;28;20035;-58
2023/06/04 01:10:55;;;;;;;3.60;0.90;;;28.80;99.90;;;;;;4965608;29;20019;-56
2023/06/04 01:13:23;;;;;;;3.30;0.80;;;28.80;99.90;;;;;;4975858;28;20035;-55
2023/06/04 01:15:49;;;;;;;4.25;1.00;;;28.70;99.70;;;;;;4975884;28;20252;-57
2023/06/04 01:18:27;;;;;;;5.35;1.10;;;28.80;99.80;;;;;;4966149;29;20047;-60
2023/06/04 01:21:08;;;;;;;4.25;0.90;;;28.70;99.80;;;;;;4965448;29;20334;-59
2023/06/04 01:23:44;;;;;;;1.83;0.90;;;28.80;99.90;;;;;;4965668;29;20203;-58
2023/06/04 01:26:11;;;;;;;4.40;1.27;;;28.80;99.90;;;;;;4965455;29;20039;-58
2023/06/04 01:28:38;;;;;;;2.75;0.90;;;28.80;99.90;;;;;;4967274;28;20303;-55
2023/06/04 01:31:09;;;;;;;4.88;0.95;;;28.80;99.80;;;;;;4974945;28;20039;-52
2023/06/04 01:33:35;;;;;;;3.60;0.82;;;28.80;99.70;;;;;;4965560;29;20102;-57
2023/06/04 01:36:02;;;;;;;2.72;0.65;;;28.80;99.90;;;;;;4965344;29;20243;-51
2023/06/04 01:38:28;;;;;;;2.10;0.73;;;28.70;99.80;;;;;;4968395;28;20027;-52
2023/06/04 01:40:57;;;;;;;5.55;0.80;;;28.80;99.80;;;;;;4969465;29;20349;-55
2023/06/04 01:43:23;;;;;;;3.90;0.95;;;28.80;99.70;;;;;;4969651;29;20027;-58
2023/06/04 01:45:50;;;;;;;4.95;1.45;;;28.70;99.50;;;;;;4972264;28;20330;-56
2023/06/04 01:48:17;;;;;;;2.25;0.90;;;28.70;99.70;;;;;;4976646;28;20031;-55
2023/06/04 01:50:44;;;;;;;2.15;0.70;;;28.80;99.80;;;;;;4969096;29;20109;-52
2023/06/04 01:53:10;;;;;;;3.45;1.10;;;28.70;99.70;;;;;;4969104;29;20031;-59
2023/06/04 01:55:37;;;;;;;2.38;0.73;;;28.80;99.70;;;;;;4969166;29;20279;-57
2023/06/04 01:58:07;;;;;;;4.15;1.10;;;28.80;99.80;;;;;;4974089;28;20059;-55
2023/06/04 02:00:33;;;;;;;7.38;1.00;;;28.80;99.90;;;;;;4983138;28;20074;-52
2023/06/04 02:03:00;;;;;;;2.08;1.00;;;28.90;99.90;;;;;;4977531;28;20039;-57
2023/06/04 02:05:26;;;;;;;4.20;1.15;;;29.00;99.90;;;;;;4968894;29;20038;-54
2023/06/04 02:07:54;;;;;;;6.20;1.10;;;29.00;99.90;;;;;;4968920;29;20208;-59
2023/06/04 02:10:21;;;;;;;7.00;1.33;;;29.00;99.90;;;;;;4968925;29;20039;-59
2023/06/04 02:13:04;;;;;;;14.05;2.40;;;29.00;99.90;;;;;;4968864;29;20019;-56
2023/06/04 02:15:32;;;;;;;9.35;1.52;;;29.00;99.90;;;;;;4968841;28;20031;-57
2023/06/04 02:18:16;;;;;;;7.53;1.48;;;29.00;99.90;;;;;;4981266;28;20032;-57
2023/06/04 02:20:47;;;;;;;6.85;1.50;;;29.00;99.90;;;;;;4968351;29;20037;-56
2023/06/04 02:23:15;;;;;;;5.97;1.85;;;29.00;99.90;;;;;;4969102;29;20383;-56
2023/06/04 02:25:44;;;;;;;6.57;1.20;;;29.00;99.90;;;;;;4968474;29;20039;-58
2023/06/04 02:28:11;;;;;;;4.65;1.20;;;29.10;99.90;;;;;;4968528;29;20295;-56
2023/06/04 02:30:38;;;;;;;8.60;1.33;;;29.00;99.90;;;;;;4968588;29;20078;-59
2023/06/04 02:33:05;;;;;;;4.70;1.15;;;29.10;99.90;;;;;;4968557;29;20050;-55
2023/06/04 02:35:32;;;;;;;8.32;1.58;;;29.10;99.90;;;;;;4967972;29;20027;-58
2023/06/04 02:37:59;;;;;;;5.82;1.20;;;29.00;99.90;;;;;;4968675;29;20107;-56
2023/06/04 02:40:25;;;;;;;4.88;1.08;;;29.00;99.90;;;;;;4968437;29;20089;-60
2023/06/04 02:42:56;;;;;;;4.75;0.95;;;29.00;99.90;;;;;;4968262;29;20249;-55
2023/06/04 02:45:23;;;;;;;3.45;1.02;;;29.00;99.90;;;;;;4968214;28;20038;-55
2023/06/04 02:47:49;;;;;;;5.40;1.30;;;29.00;99.90;;;;;;4978983;28;20043;-56
2023/06/04 02:50:17;;;;;;;1.98;0.93;;;29.10;99.90;;;;;;4966664;28;20034;-59
2023/06/04 02:52:44;;;;;;;4.15;1.00;;;29.20;99.90;;;;;;4968143;29;20027;-60
2023/06/04 02:55:12;;;;;;;4.03;1.02;;;29.10;99.90;;;;;;4968059;29;20386;-55
2023/06/04 02:57:42;;;;;;;5.25;1.20;;;29.10;99.90;;;;;;4967903;29;20047;-54
2023/06/04 03:00:13;;;;;;;3.88;0.90;;;29.10;99.90;;;;;;4974441;28;20022;-62
2023/06/04 03:02:41;;;;;;;6.90;1.10;;;29.10;99.90;;;;;;4979909;28;20042;-56
2023/06/04 03:05:10;;;;;;;4.93;1.55;;;29.20;99.90;;;;;;4980046;28;20023;-62
2023/06/04 03:07:38;;;;;;;4.35;1.30;;;29.10;99.90;;;;;;4968403;28;20042;-60
2023/06/04 03:10:05;;;;;;;5.30;1.10;;;29.10;99.90;;;;;;4967820;29;20094;-59
2023/06/04 03:12:32;;;;;;;6.13;1.17;;;29.00;99.90;;;;;;4967712;29;20362;-55
2023/06/04 03:14:58;;;;;;;5.32;0.90;;;29.00;99.90;;;;;;4967819;29;20031;-61
2023/06/04 03:17:26;;;;;;;4.30;0.90;;;29.10;99.90;;;;;;4967932;29;20015;-59
2023/06/04 03:19:53;;;;;;;2.53;0.90;;;29.00;99.90;;;;;;4967389;29;20023;-61
2023/06/04 03:22:20;;;;;;;3.10;0.93;;;29.00;99.90;;;;;;4971699;28;20042;-58
2023/06/04 03:24:46;;;;;;;3.35;0.70;;;28.90;99.90;;;;;;4983880;28;20030;-60
2023/06/04 03:27:13;;;;;;;2.95;1.00;;;28.90;99.90;;;;;;4979175;28;20022;-62
2023/06/04 03:29:39;;;;;;;2.67;0.80;;;29.00;99.90;;;;;;4979798;28;20039;-65
2023/06/04 03:32:07;;;;;;;1.90;0.80;;;29.10;99.90;;;;;;4986850;28;20018;-65
2023/06/04 03:34:33;;;;;;;4.43;0.85;;;29.20;99.90;;;;;;4986406;28;20345;-65
2023/06/04 03:37:00;;;;;;;5.72;1.02;;;29.20;99.90;;;;;;4986617;28;20042;-62
2023/06/04 03:39:26;;;;;;;5.00;0.93;;;29.30;99.90;;;;;;4987129;28;20226;-63
2023/06/04 03:41:54;;;;;;;4.60;1.00;;;29.20;99.70;;;;;;4986638;28;20027;-65
2023/06/04 03:44:22;;;;;;;4.65;1.00;;;29.20;99.50;;;;;;4987027;28;20069;-63
2023/06/04 03:46:49;;;;;;;5.07;1.10;;;29.20;99.30;;;;;;4986616;28;20042;-65
2023/06/04 03:49:17;;;;;;;1.23;0.80;;;29.20;99.30;;;;;;4986857;28;20066;-65
2023/06/04 03:51:43;;;;;;;3.00;0.90;;;29.20;99.20;;;;;;4986108;28;20041;-65
2023/06/04 03:54:10;;;;;;;2.85;0.93;;;29.10;99.00;;;;;;4986734;28;20231;-63
2023/06/04 03:56:36;;;;;;;2.42;0.90;;;29.10;98.90;;;;;;4979267;28;20111;-64
2023/06/04 03:59:03;;;;;;;2.28;0.85;;;29.20;98.80;;;;;;4974674;28;20073;-64
2023/06/04 04:01:30;;;;;;;3.00;0.90;;;29.10;98.70;;;;;;4967540;28;20027;-63
2023/06/04 04:03:56;;;;;;;6.10;0.95;;;29.10;98.60;;;;;;4980259;28;20027;-65
2023/06/04 04:06:23;;;;;;;2.63;0.93;;;29.10;98.60;;;;;;4969575;28;20043;-64
2023/06/04 04:08:49;;;;;;;7.30;0.95;;;29.10;98.50;;;;;;4967124;29;20026;-64
2023/06/04 04:11:16;;;;;;;6.60;1.13;;;29.10;98.50;;;;;;4966880;29;20219;-64
2023/06/04 04:13:46;;;;;;;4.00;0.98;;;29.10;98.40;;;;;;4967064;29;20058;-64
2023/06/04 04:16:12;;;;;;;5.38;1.00;;;29.10;98.30;;;;;;4966654;29;20316;-65
2023/06/04 04:18:41;;;;;;;3.75;1.02;;;29.10;98.20;;;;;;4967143;29;20052;-64
2023/06/04 04:21:07;;;;;;;5.40;1.00;;;29.00;98.20;;;;;;4966316;29;20098;-65
2023/06/04 04:23:34;;;;;;;4.82;1.17;;;29.10;98.30;;;;;;4966884;29;20027;-65
2023/06/04 04:26:02;;;;;;;3.22;0.90;;;29.10;98.20;;;;;;4967823;28;20027;-63
2023/06/04 04:28:28;;;;;;;5.53;1.10;;;29.10;98.20;;;;;;4975595;28;20058;-64
2023/06/04 04:30:59;;;;;;;3.97;0.93;;;29.10;98.20;;;;;;4966418;29;20053;-65
2023/06/04 04:33:25;;;;;;;5.18;1.10;;;29.10;98.20;;;;;;4966446;28;20110;-64
2023/06/04 04:35:53;;;;;;;3.90;0.90;;;29.10;98.20;;;;;;4970132;28;20110;-64
2023/06/04 04:38:23;;;;;;;2.65;0.90;;;29.10;98.20;;;;;;4980352;28;20021;-64
2023/06/04 04:40:52;;;;;;;2.13;0.85;;;29.00;98.10;;;;;;4985599;28;20042;-65
2023/06/04 04:43:30;;;;;;;3.78;1.05;;;29.10;98.40;;;;;;4985939;28;20041;-66
2023/06/04 04:45:56;;;;;;;3.30;0.90;;;29.10;98.10;;;;;;4985447;28;20027;-63
2023/06/04 04:48:23;;;;;;;4.03;0.80;;;29.10;98.10;;;;;;4985311;28;20066;-63
2023/06/04 04:50:50;;;;;;;2.75;0.57;;;29.00;98.00;;;;;;4985116;28;20029;-63
2023/06/04 04:53:16;;;;;;;2.92;0.90;;;29.00;98.00;;;;;;4985555;28;20031;-63
2023/06/04 04:55:43;;;;;;;3.75;0.85;;;29.00;98.00;;;;;;4985173;28;20039;-63
2023/06/04 04:58:09;;;;;;;3.20;0.90;;;29.00;98.00;;;;;;4985451;28;20043;-63
2023/06/04 05:00:36;;;;;;;3.72;0.90;;;29.00;98.00;;;;;;4985516;28;20030;-63
2023/06/04 05:03:02;;;;;;;6.65;1.30;;;29.00;97.90;;;;;;4985275;28;20034;-63
2023/06/04 05:05:29;;;;;;;2.03;0.73;;;28.90;97.90;;;;;;4985016;28;20030;-63
2023/06/04 05:07:55;;;;;;;4.25;0.73;;;29.00;97.90;;;;;;4977840;28;20380;-62
2023/06/04 05:10:22;;;;;;;4.63;0.82;;;29.00;97.90;;;;;;4979713;28;20154;-63
2023/06/04 05:12:58;;;;;;;4.45;1.10;;;29.00;97.90;;;;;;4984625;28;20022;-63
2023/06/04 05:15:26;;;;;;;5.30;0.90;;;29.00;97.90;;;;;;4985209;28;20078;-64
2023/06/04 05:17:53;;;;;;;2.55;0.82;;;29.00;97.90;;;;;;4977609;28;20023;-65
2023/06/04 05:20:22;;;;;;;2.30;0.80;;;28.90;97.90;;;;;;4965555;29;20196;-66
2023/06/04 05:22:49;;;;;;;4.70;1.13;;;28.90;97.90;;;;;;4966082;29;20039;-64
2023/06/04 05:25:18;;;;;;;3.42;0.70;;;28.90;97.90;;;;;;4965700;29;20192;-65
2023/06/04 05:27:45;;;;;;;2.22;0.90;;;29.00;98.00;;;;;;4965727;29;20023;-64
2023/06/04 05:30:12;;;;;;;7.28;0.90;;;28.90;98.00;;;;;;4965610;29;20074;-65
2023/06/04 05:32:40;;;;;;;5.90;1.15;;;29.00;98.00;;;;;;4965584;29;20047;-66
2023/06/04 05:35:08;;;;;;;8.77;0.90;;;28.90;98.00;;;;;;4965242;29;20023;-65
2023/06/04 05:37:37;;;;;;;5.85;0.90;;;28.90;98.10;;;;;;4965755;29;20031;-64
2023/06/04 05:40:05;;;;;;;4.03;0.90;;;28.90;98.10;;;;;;4969709;28;20027;-64
2023/06/04 05:42:32;;;;;;;5.38;0.82;;;29.00;98.10;;;;;;4977386;28;20086;-64
2023/06/04 05:44:58;;;;;;;4.72;0.80;;;29.00;98.10;;;;;;4984678;28;20067;-65
2023/06/04 05:47:25;;;;;;;4.72;0.90;;;29.00;98.20;;;;;;4984872;28;20137;-64
2023/06/04 05:49:51;;;;;;;3.85;0.80;;;28.90;98.20;;;;;;4984616;28;20037;-64
2023/06/04 05:52:18;;;;;;;5.93;1.00;;;29.00;98.20;;;;;;4984732;28;20033;-64
2023/06/04 05:54:44;;;;;;;4.30;0.80;;;28.90;98.20;;;;;;4984593;28;20034;-63
2023/06/04 05:57:11;;;;;;;4.75;1.00;;;28.90;98.20;;;;;;4984488;28;20038;-64
2023/06/04 05:59:37;;;;;;;5.82;0.90;;;28.90;98.20;;;;;;4984759;28;20146;-64
2023/06/04 06:02:04;;;;;;;7.13;1.20;;;28.90;98.20;;;;;;4984456;28;20015;-64
2023/06/04 06:04:30;;;;;;;4.80;1.00;;;28.90;98.20;;;;;;4984519;28;20034;-64
2023/06/04 06:06:57;;;;;;;6.30;1.15;;;28.90;98.20;;;;;;4984506;28;20031;-64
2023/06/04 06:09:23;;;;;;;4.00;1.20;;;28.90;98.30;;;;;;4984996;28;20124;-63
2023/06/04 06:11:50;;;;;;;5.88;1.33;;;28.80;98.30;;;;;;4984728;28;20034;-62
2023/06/04 06:14:16;;;;;;;3.92;1.30;;;28.90;98.40;;;;;;4984909;28;20061;-65
2023/06/04 06:16:43;;;;;;;4.28;1.33;;;28.90;98.40;;;;;;4984475;28;20023;-64
2023/06/04 06:19:11;;;;;;;3.22;1.08;;;28.90;98.40;;;;;;4984691;28;20023;-64
2023/06/04 06:21:37;;;;;;;5.10;1.33;;;28.90;98.30;;;;;;4984438;28;20031;-63
2023/06/04 06:24:04;;;;;;;4.47;1.20;;;28.90;98.40;;;;;;4986245;28;20027;-62
2023/06/04 06:26:31;;;;;;;5.28;1.20;;;28.90;98.40;;;;;;4981699;28;20034;-65
2023/06/04 06:28:58;;;;;;;6.07;1.30;;;28.90;98.40;;;;;;4973336;28;20073;-65
2023/06/04 06:31:24;;;;;;;6.03;1.50;;;28.90;98.40;;;;;;4987797;28;20038;-65
2023/06/04 06:33:50;;;;;;;3.30;1.25;;;28.90;98.40;;;;;;4987842;28;20030;-65
2023/06/04 06:36:18;;;;;;;6.03;1.00;;;28.80;98.40;;;;;;4988005;28;20278;-65
2023/06/04 06:38:46;;;;;;;3.97;1.30;;;28.80;98.40;;;;;;4987875;28;20046;-64
2023/06/04 06:41:12;;;;;;;7.28;1.13;;;28.90;98.40;;;;;;4987700;28;20093;-63
2023/06/04 06:43:39;;;;;;;7.45;1.40;;;28.90;98.40;;;;;;4987843;28;20034;-64
2023/06/04 06:46:06;;;;;;;5.18;1.23;;;28.90;98.40;;;;;;4987534;28;20109;-64
2023/06/04 06:48:32;;;;;;;1.70;0.80;;;28.80;98.50;;;;;;4987241;28;20026;-63
2023/06/04 06:50:58;;;;;;;5.53;1.23;;;28.90;98.50;;;;;;4987562;28;20058;-65
2023/06/04 06:53:25;;;;;;;4.90;1.00;;;28.80;98.50;;;;;;4987568;28;20325;-65
2023/06/04 06:55:51;;;;;;;2.55;0.80;;;28.90;98.50;;;;;;4987436;28;20223;-66
2023/06/04 06:58:18;;;;;;;3.88;1.23;;;28.90;98.50;;;;;;4987452;28;20039;-63
2023/06/04 07:00:45;;;;;;;4.10;1.15;;;28.90;98.50;;;;;;4987370;28;20019;-64
2023/06/04 07:03:11;;;;;;;6.97;1.20;;;28.90;98.50;;;;;;4987332;28;20438;-65
2023/06/04 07:05:38;;;;;;;4.03;1.23;;;28.80;98.50;;;;;;4986488;28;20042;-64
2023/06/04 07:08:04;;;;;;;4.35;1.20;;;28.80;98.50;;;;;;4969033;28;20027;-64
2023/06/04 07:10:31;;;;;;;6.25;1.17;;;28.90;98.60;;;;;;4968097;29;20090;-65
2023/06/04 07:12:57;;;;;;;6.55;1.42;;;28.80;98.60;;;;;;4984681;28;20131;-65
2023/06/04 07:15:24;;;;;;;3.22;1.52;;;28.80;98.60;;;;;;4987112;28;20023;-66
2023/06/04 07:17:50;;;;;;;9.50;2.00;;;28.90;98.60;;;;;;4981513;28;20023;-64
2023/06/04 07:20:17;;;;;;;7.43;1.88;;;28.80;98.60;;;;;;4982866;28;20034;-64
2023/06/04 07:22:43;;;;;;;6.07;1.92;;;28.80;98.70;;;;;;4987187;28;20046;-64
2023/06/04 07:25:10;;;;;;;4.97;2.08;;;28.90;98.70;;;;;;4986901;28;20027;-66
2023/06/04 07:27:37;;;;;;;6.22;2.15;;;28.90;98.80;;;;;;4986951;28;20030;-66
2023/06/04 07:30:04;;;;;;;5.70;2.05;;;28.90;98.80;;;;;;4986828;28;20089;-66
2023/06/04 07:32:31;;;;;;;5.57;2.00;;;28.90;98.80;;;;;;4986243;28;20019;-64
2023/06/04 07:34:57;;;;;;;6.55;2.00;;;28.80;98.70;;;;;;4979876;28;20046;-63
2023/06/04 07:37:24;;;;;;;10.95;2.05;;;28.80;98.70;;;;;;4977073;28;20022;-63
2023/06/04 07:39:50;;;;;;;3.55;1.63;;;28.80;98.70;;;;;;4967257;29;20028;-64
2023/06/04 07:42:17;;;;;;;4.82;1.83;;;28.90;98.80;;;;;;4967216;29;20151;-65
2023/06/04 07:44:43;;;;;;;6.40;2.10;;;28.80;98.70;;;;;;4967237;29;20035;-66
2023/06/04 07:47:10;;;;;;;6.60;2.08;;;28.90;98.80;;;;;;4966786;29;20069;-64
2023/06/04 07:49:36;;;;;;;4.35;1.70;;;28.90;98.80;;;;;;4966901;29;20078;-65
2023/06/04 07:52:03;;;;;;;4.53;1.50;;;28.80;98.70;;;;;;4966991;29;20029;-65
2023/06/04 07:54:31;;;;;;;6.53;1.80;;;28.80;98.70;;;;;;4966856;29;20035;-65
2023/06/04 07:56:58;;;;;;;4.00;1.25;;;28.80;98.80;;;;;;4966733;29;20282;-65
2023/06/04 07:59:24;;;;;;;3.15;1.45;;;28.80;98.70;;;;;;4967335;29;20027;-66
2023/06/04 08:01:51;;;;;;;5.95;1.50;;;28.80;98.80;;;;;;4966717;29;20023;-64
2023/06/04 08:04:18;;;;;;;3.50;1.35;;;28.80;98.80;;;;;;4967066;29;20035;-65
2023/06/04 08:06:46;;;;;;;7.25;1.50;;;28.80;98.80;;;;;;4966779;29;20337;-65
2023/06/04 08:09:13;;;;;;;5.35;1.30;;;28.80;98.80;;;;;;4967057;29;20058;-65
2023/06/04 08:11:42;;;;;;;6.35;1.60;;;28.80;98.80;;;;;;4966610;29;20039;-65
2023/06/04 08:14:11;;;;;;;7.00;1.60;;;28.80;98.80;;;;;;4966931;29;20307;-65
2023/06/04 08:16:37;;;;;;;8.02;1.90;;;28.80;98.80;;;;;;4966362;29;20050;-64
2023/06/04 08:19:04;;;;;;;6.20;1.55;;;28.80;98.90;;;;;;4966861;29;20030;-65
2023/06/04 08:21:31;;;;;;;5.07;1.25;;;28.80;98.80;;;;;;4966440;29;20031;-65
2023/06/04 08:23:58;;;;;;;8.25;1.58;;;28.80;98.90;;;;;;4966703;29;20047;-66
2023/06/04 08:26:26;;;;;;;7.40;1.40;;;28.80;98.80;;;;;;4966676;29;20106;-66
2023/06/04 08:28:53;;;;;;;5.47;1.40;;;28.80;98.90;;;;;;4966467;29;20033;-65
2023/06/04 08:31:20;;;;;;;3.80;1.40;;;28.80;98.80;;;;;;4966317;29;20051;-65
2023/06/04 08:33:47;;;;;;;8.70;1.45;;;28.80;98.80;;;;;;4966105;29;20065;-66
2023/06/04 08:36:15;;;;;;;10.52;1.75;;;28.80;98.90;;;;;;4966319;29;20023;-66
2023/06/04 08:38:42;;;;;;;5.07;1.30;;;28.80;98.90;;;;;;4966421;29;20066;-65
2023/06/04 08:41:29;;;;;;;4.47;1.10;;;28.70;98.90;;;;;;4966422;29;20082;-65
2023/06/04 08:43:57;;;;;;;4.38;1.33;;;28.80;99.00;;;;;;4966392;29;20207;-65
2023/06/04 08:46:25;;;;;;;4.68;1.00;;;28.80;99.00;;;;;;4965592;28;20146;-64
2023/06/04 08:48:52;;;;;;;7.07;1.23;;;28.80;99.10;;;;;;4965627;29;20090;-64
2023/06/04 08:51:19;;;;;;;8.63;1.58;;;28.90;99.10;;;;;;4965985;29;20090;-64
2023/06/04 08:53:49;;;;;;;4.10;1.00;;;28.90;99.10;;;;;;4966459;29;20066;-64
2023/06/04 08:56:17;;;;;;;7.07;1.35;;;28.80;99.00;;;;;;4965743;29;20046;-64
2023/06/04 08:58:44;;;;;;;5.50;1.05;;;28.80;99.00;;;;;;4966161;29;20023;-64
2023/06/04 09:01:11;;;;;;;6.32;1.15;;;28.90;99.10;;;;;;4965908;29;20231;-64
2023/06/04 09:03:38;;;;;;;5.53;1.13;;;28.80;99.00;;;;;;4966037;29;20023;-64
2023/06/04 09:06:05;;;;;;;8.38;1.25;;;28.80;99.10;;;;;;4965711;29;20327;-65
2023/06/04 09:08:35;;;;;;;7.45;1.10;;;28.80;99.10;;;;;;4966081;29;20303;-64
2023/06/04 09:11:06;;;;;;;4.57;0.80;;;28.80;99.10;;;;;;4965703;29;20098;-64
2023/06/04 09:13:34;;;;;;;4.88;1.02;;;28.80;99.10;;;;;;4965822;29;20303;-64
2023/06/04 09:16:07;;;;;;;5.70;1.08;;;28.80;99.10;;;;;;4965454;29;20023;-65
2023/06/04 09:18:34;;;;;;;4.63;0.90;;;28.80;99.10;;;;;;4965917;29;20026;-64
2023/06/04 09:21:05;;;;;;;8.32;1.00;;;28.90;99.10;;;;;;4965595;29;20223;-64
2023/06/04 09:23:35;;;;;;;3.38;0.70;;;28.90;99.10;;;;;;4966189;29;20149;-65
2023/06/04 09:26:09;;;;;;;4.20;1.27;;;28.80;99.10;;;;;;4965532;29;20078;-66
2023/06/04 09:28:45;;;;;;;5.25;0.93;;;28.90;99.10;;;;;;4965763;29;20027;-65
2023/06/04 09:31:17;;;;;;;3.58;0.80;;;28.80;99.10;;;;;;4965120;29;20114;-65
2023/06/04 09:33:49;;;;;;;4.13;0.90;;;28.80;99.10;;;;;;4965739;29;20039;-65
2023/06/04 09:36:16;;;;;;;6.97;0.93;;;28.80;99.20;;;;;;4965622;29;20267;-67
2023/06/04 09:38:43;;;;;;;10.02;1.25;;;28.80;99.20;;;;;;4965621;29;20015;-65
2023/06/04 09:41:13;;;;;;;5.15;1.00;;;28.80;99.20;;;;;;4965635;29;20031;-64
2023/06/04 09:43:40;;;;;;;7.13;0.90;;;28.80;99.10;;;;;;4965720;29;20031;-64
2023/06/04 09:46:15;;;;;;;6.07;0.98;;;28.80;99.10;;;;;;4965020;29;20031;-64
2023/06/04 09:48:42;;;;;;;9.48;1.23;;;28.80;99.10;;;;;;4965723;29;20050;-63
2023/06/04 09:51:19;;;;;;;8.90;1.10;;;28.80;99.10;;;;;;4965385;29;20027;-64
2023/06/04 09:53:56;;;;;;;7.13;0.88;;;28.80;99.20;;;;;;4965583;29;20035;-65
2023/06/04 09:56:23;;;;;;;3.72;0.70;;;28.70;99.10;;;;;;4965116;29;20032;-65
2023/06/04 09:58:53;;;;;;;4.88;1.10;;;28.80;99.20;;;;;;4966801;28;20039;-64
2023/06/04 10:01:22;;;;;;;5.25;0.98;;;28.80;99.20;;;;;;4968652;29;20053;-64
2023/06/04 10:03:52;;;;;;;4.50;1.10;;;28.80;99.20;;;;;;4969447;29;20307;-64
2023/06/04 10:06:23;;;;;;;5.28;1.30;;;28.80;99.20;;;;;;4968969;29;20234;-64
2023/06/04 10:08:51;;;;;;;7.95;1.30;;;28.80;99.20;;;;;;4969002;29;20249;-64
2023/06/04 10:11:25;;;;;;;6.03;1.42;;;28.80;99.20;;;;;;4968721;29;20043;-63
2023/06/04 10:14:03;;;;;;;6.90;1.55;;;28.70;99.20;;;;;;4969128;29;20319;-65
2023/06/04 10:16:32;;;;;;;8.20;1.42;;;28.80;99.20;;;;;;4968383;29;20320;-65
2023/06/04 10:19:00;;;;;;;6.95;1.40;;;28.80;99.20;;;;;;4969495;29;20055;-65
2023/06/04 10:21:29;;;;;;;6.50;1.42;;;28.70;99.20;;;;;;4968639;29;20035;-65
2023/06/04 10:23:55;;;;;;;8.82;3.45;;;28.80;99.20;;;;;;4968852;29;20027;-65
2023/06/04 10:26:22;;;;;;;11.10;4.68;;;28.80;99.20;;;;;;4968889;29;20260;-65
2023/06/04 10:28:50;;;;;;;7.85;4.50;;;28.70;99.20;;;;;;4968923;29;20031;-65
2023/06/04 10:31:17;;;;;;;7.45;3.60;;;28.80;99.20;;;;;;4968002;29;20034;-63
2023/06/04 10:33:44;;;;;;;6.45;3.53;;;28.80;99.20;;;;;;4968567;29;20103;-63
2023/06/04 10:36:19;;;;;;;8.25;3.05;;;28.80;99.20;;;;;;4968430;29;20034;-64
2023/06/04 10:38:51;;;;;;;8.07;2.10;;;28.80;99.30;;;;;;4968585;29;20310;-63
2023/06/04 10:41:19;;;;;;;4.20;2.30;;;28.80;99.30;;;;;;4968598;29;20035;-64
2023/06/04 10:43:49;;;;;;;8.18;1.83;;;28.80;99.30;;;;;;4968586;29;20050;-64
2023/06/04 10:46:19;;;;;;;9.52;2.28;;;28.80;99.30;;;;;;4967761;29;20091;-64
2023/06/04 10:48:50;;;;;;;8.55;2.28;;;28.80;99.40;;;;;;4968126;29;20058;-64
2023/06/04 10:51:37;;;;;;;9.52;2.10;;;28.80;99.40;;;;;;4968058;29;20263;-64
2023/06/04 10:54:04;;;;;;;7.18;2.10;;;28.80;99.40;;;;;;4968061;29;20035;-64
2023/06/04 10:56:35;;;;;;;6.88;1.80;;;28.80;99.40;;;;;;4967945;29;20050;-64
2023/06/04 10:59:13;;;;;;;7.35;1.83;;;28.90;99.50;;;;;;4968445;29;20027;-64
2023/06/04 11:01:40;;;;;;;8.13;1.92;;;28.90;99.60;;;;;;4967632;29;20031;-64
2023/06/04 11:04:07;;;;;;;12.63;1.88;;;28.90;99.60;;;;;;4968163;29;20254;-64
2023/06/04 11:06:35;;;;;;;4.28;1.70;;;28.90;99.60;;;;;;4967990;29;20035;-65
2023/06/04 11:09:05;;;;;;;6.53;1.70;;;28.90;99.60;;;;;;4968192;29;20094;-65
2023/06/04 11:11:32;;;;;;;7.18;1.70;;;28.90;99.70;;;;;;4966722;28;20090;-65
2023/06/04 11:14:16;;;;;;;8.10;1.40;;;28.90;99.80;;;;;;4968029;29;20086;-64
2023/06/04 11:16:43;;;;;;;4.03;1.65;;;29.00;99.80;;;;;;4967309;29;20031;-64
2023/06/04 11:19:09;;;;;;;4.32;1.60;;;29.00;99.80;;;;;;4968100;29;20297;-65
2023/06/04 11:21:39;;;;;;;6.45;1.63;;;29.00;99.90;;;;;;4967694;29;20086;-64
2023/06/04 11:24:05;;;;;;;8.80;2.30;;;29.00;99.80;;;;;;4967990;29;20070;-65
2023/06/04 11:26:37;;;;;;;7.35;2.30;;;29.00;99.90;;;;;;4967541;29;20050;-65
2023/06/04 11:29:08;;;;;;;6.85;2.20;;;29.10;99.90;;;;;;4968111;29;20027;-65
2023/06/04 11:31:45;;;;;;;4.90;2.72;;;29.10;99.90;;;;;;4967024;29;20077;-64
2023/06/04 11:34:32;;;;;;;8.15;2.67;;;29.10;99.90;;;;;;4967845;29;20030;-64
2023/06/04 11:37:09;;;;;;;7.30;2.53;;;29.10;99.90;;;;;;4967394;29;20247;-66
2023/06/04 11:39:39;;;;;;;8.00;2.22;;;29.20;99.90;;;;;;4967241;29;20027;-65
2023/06/04 11:42:07;;;;;;;8.00;2.35;;;29.20;99.90;;;;;;4967052;28;20042;-66
2023/06/04 11:44:34;;;;;;;8.18;2.40;;;29.30;99.90;;;;;;4966927;29;20033;-66
2023/06/04 11:47:00;;;;;;;3.88;2.17;;;29.30;99.90;;;;;;4966987;29;20030;-65
2023/06/04 11:49:28;;;;;;;6.43;2.40;;;29.30;99.90;;;;;;4967584;29;20035;-64
2023/06/04 11:51:54;;;;;;;6.75;2.50;;;29.20;99.90;;;;;;4967071;29;20090;-66
2023/06/04 11:54:23;;;;;;;8.60;2.55;;;29.30;99.90;;;;;;4967448;29;20027;-64
2023/06/04 11:56:51;;;;;;;5.40;2.50;;;29.30;99.90;;;;;;4966728;29;20043;-64
2023/06/04 11:59:18;;;;;;;7.95;2.85;;;29.30;99.90;;;;;;4967235;29;20027;-65
2023/06/04 12:01:46;;;;;;;5.82;3.13;;;29.30;99.90;;;;;;4966803;29;20200;-65
2023/06/04 12:04:20;;;;;;;7.05;2.80;;;29.40;99.90;;;;;;4967259;29;20314;-65
2023/06/04 12:06:54;;;;;;;5.75;2.80;;;29.40;99.90;;;;;;4966747;29;20027;-65
2023/06/04 12:09:27;;;;;;;8.10;2.80;;;29.60;99.90;;;;;;4967158;29;20048;-65
2023/06/04 12:12:04;;;;;;;5.45;2.40;;;29.70;99.90;;;;;;4966831;29;20031;-65
2023/06/04 12:14:31;;;;;;;6.15;2.65;;;29.60;99.90;;;;;;4966131;29;20110;-64
2023/06/04 12:17:05;;;;;;;9.40;2.45;;;29.70;99.60;;;;;;4966633;29;20015;-64
2023/06/04 12:19:33;;;;;;;7.72;2.42;;;29.70;99.50;;;;;;4966653;29;20312;-64
2023/06/04 12:22:07;;;;;;;8.07;2.42;;;29.70;99.30;;;;;;4966159;28;20090;-64
2023/06/04 12:24:48;;;;;;;3.70;2.30;;;29.80;99.30;;;;;;4966569;29;20031;-66
2023/06/04 12:27:16;;;;;;;3.95;2.40;;;29.80;99.20;;;;;;4966269;29;20016;-65
2023/06/04 12:29:43;;;;;;;5.45;1.85;;;29.80;99.10;;;;;;4966062;29;20035;-65
2023/06/04 12:32:15;;;;;;;4.32;1.90;;;29.90;99.10;;;;;;4966371;29;20130;-65
2023/06/04 12:34:42;;;;;;;;;;;29.90;99.00;;;;;;4966558;29;20038;-64
2023/06/04 12:37:09;;;;;;;5.32;2.17;;;29.90;98.90;;;;;;4966248;29;19914;-65
2023/06/04 12:39:39;;;;;;;6.90;1.95;;;30.00;98.90;;;;;;4966268;29;20029;-65
2023/06/04 12:42:09;;;;;;;7.18;2.00;;;30.00;98.70;;;;;;4966218;29;20073;-65
2023/06/04 12:44:40;;;;;;;5.05;1.90;;;30.10;98.70;;;;;;4965721;29;20341;-65
2023/06/04 12:47:07;;;;;;;3.67;1.70;;;30.00;98.60;;;;;;4965955;29;20026;-64
2023/06/04 12:49:36;;;;;;;2.05;1.40;;;30.10;98.50;;;;;;4966080;28;20263;-65
2023/06/04 12:52:03;;;;;;;3.97;1.45;;;30.10;98.50;;;;;;4981557;28;20039;-65
2023/06/04 12:54:30;;;;;;;4.65;1.70;;;30.00;98.40;;;;;;4985116;28;20069;-65